Time;durP1;ratioP1;P1;durP2;ratioP2;P2;SDS_P1;SDS_P2;PMS_P1;PMS_P2;Temp;Humidity;BMP_temperature;BMP_pressure;BME280_temperature;BME280_humidity;BME280_pressure;Samples;Min_cycle;Max_cycle;Signal;HPM_P1;HPM_P2
2022/10/28 00:01:02;;;;;;;6.03;5.13;;;;;;;14.15;100.00;101696.28;5017752;28;20256;-54
2022/10/28 00:03:29;;;;;;;9.15;5.18;;;;;;;14.21;100.00;101690.09;5036109;28;20238;-52
2022/10/28 00:06:01;;;;;;;5.95;5.35;;;;;;;14.27;100.00;101688.31;5045580;28;20236;-52
2022/10/28 00:08:29;;;;;;;6.03;4.65;;;;;;;14.30;100.00;101690.97;5038509;28;20250;-52
2022/10/28 00:11:02;;;;;;;5.20;4.65;;;;;;;14.36;100.00;101684.81;5037920;28;20323;-53
2022/10/28 00:13:28;;;;;;;8.20;5.20;;;;;;;14.34;100.00;101697.13;5032377;28;20237;-53
2022/10/28 00:15:55;;;;;;;4.50;4.20;;;;;;;14.28;100.00;101708.56;5025829;28;20244;-52
2022/10/28 00:18:21;;;;;;;5.00;4.50;;;;;;;14.28;100.00;101718.25;5027036;28;20261;-53
2022/10/28 00:20:48;;;;;;;5.70;5.20;;;;;;;14.27;100.00;101711.22;5040158;28;20228;-53
2022/10/28 00:23:14;;;;;;;6.55;4.82;;;;;;;14.26;100.00;101710.34;5027908;28;20323;-53
2022/10/28 00:25:42;;;;;;;5.03;4.53;;;;;;;14.21;100.00;101711.22;5038131;28;20247;-52
2022/10/28 00:28:09;;;;;;;8.38;4.47;;;;;;;14.19;100.00;101702.44;5033801;28;20231;-54
2022/10/28 00:30:35;;;;;;;5.15;4.65;;;;;;;14.23;100.00;101707.69;5038304;28;20690;-53
2022/10/28 00:33:02;;;;;;;8.88;5.10;;;;;;;14.28;100.00;101707.69;5037127;28;20239;-51
2022/10/28 00:35:28;;;;;;;5.57;4.68;;;;;;;14.31;100.00;101703.28;5039871;28;20231;-53
2022/10/28 00:37:55;;;;;;;6.75;4.90;;;;;;;14.32;100.00;101697.13;5041006;28;20228;-52
2022/10/28 00:40:21;;;;;;;6.57;4.93;;;;;;;14.36;100.00;101692.72;5047765;28;20243;-51
2022/10/28 00:42:50;;;;;;;8.48;5.25;;;;;;;14.28;100.00;101691.84;5034331;28;20473;-52
2022/10/28 00:45:17;;;;;;;4.10;3.70;;;;;;;14.24;100.00;101690.09;5034483;28;20224;-52
2022/10/28 00:47:50;;;;;;;4.57;4.18;;;;;;;14.25;100.00;101692.75;5023111;28;20244;-52
2022/10/28 00:50:37;;;;;;;6.45;4.63;;;;;;;14.28;100.00;101690.06;5041803;28;20778;-54
2022/10/28 00:53:07;;;;;;;7.97;5.32;;;;;;;14.24;100.00;101690.97;5045266;28;20321;-53
2022/10/28 00:55:36;;;;;;;8.80;5.35;;;;;;;14.33;100.00;101682.16;5040583;28;20909;-53
2022/10/28 00:58:06;;;;;;;4.93;4.47;;;;;;;14.35;100.00;101685.66;5034914;28;20330;-52
2022/10/28 01:00:32;;;;;;;6.47;4.75;;;;;;;14.30;100.00;101679.53;5022398;28;20322;-52
2022/10/28 01:02:59;;;;;;;7.20;4.30;;;;;;;14.27;100.00;101680.41;5017429;28;20318;-53
2022/10/28 01:05:30;;;;;;;5.20;4.70;;;;;;;14.30;100.00;101669.84;5033757;28;20240;-53
2022/10/28 01:07:59;;;;;;;4.88;4.47;;;;;;;14.27;100.00;101674.25;5029823;28;20286;-53
2022/10/28 01:10:36;;;;;;;7.82;4.82;;;;;;;14.33;100.00;101675.13;5036307;28;20243;-52
2022/10/28 01:13:11;;;;;;;5.97;4.85;;;;;;;14.30;100.00;101677.75;5031257;28;20242;-53
2022/10/28 01:15:43;;;;;;;5.75;4.70;;;;;;;14.30;100.00;101680.41;5037217;28;20321;-53
2022/10/28 01:18:17;;;;;;;7.10;5.13;;;;;;;14.28;100.00;101679.50;5032075;28;20858;-53
2022/10/28 01:21:28;;;;;;;6.57;4.68;;;;;;;14.23;100.00;101668.06;5020532;28;20228;-53
2022/10/28 01:24:13;;;;;;;7.85;4.45;;;;;;;14.24;100.00;101668.94;5030197;28;20224;-54
2022/10/28 01:27:04;;;;;;;5.80;4.93;;;;;;;14.26;100.00;101668.06;5022496;28;20256;-53
2022/10/28 01:29:51;;;;;;;5.63;4.82;;;;;;;14.22;100.00;101670.75;5024562;28;20233;-53
2022/10/28 01:32:27;;;;;;;5.25;4.75;;;;;;;14.22;100.00;101661.06;5029998;28;20481;-53
2022/10/28 01:34:59;;;;;;;6.00;5.40;;;;;;;14.20;100.00;101656.63;5020964;28;20819;-53
2022/10/28 01:37:37;;;;;;;6.05;5.45;;;;;;;14.18;100.00;101663.66;5033822;28;20605;-54
2022/10/28 01:40:08;;;;;;;7.53;5.65;;;;;;;14.22;100.00;101650.47;5022962;28;20228;-57
2022/10/28 01:42:40;;;;;;;5.15;4.75;;;;;;;14.17;100.00;101657.50;5040971;28;20236;-52
2022/10/28 01:45:13;;;;;;;6.00;5.28;;;;;;;14.11;100.00;101651.34;5036834;28;20232;-53
2022/10/28 01:47:47;;;;;;;9.98;5.78;;;;;;;14.06;100.00;101649.59;5028795;28;20236;-52
2022/10/28 01:50:21;;;;;;;6.15;5.60;;;;;;;14.05;100.00;101641.69;5023828;28;20333;-54
2022/10/28 01:52:48;;;;;;;7.20;6.53;;;;;;;14.04;100.00;101646.09;5026140;28;20714;-53
2022/10/28 01:55:18;;;;;;;6.57;5.88;;;;;;;14.02;100.00;101646.97;5026558;28;20247;-53
2022/10/28 01:57:45;;;;;;;10.02;6.05;;;;;;;14.09;100.00;101638.16;5037874;28;20228;-52
2022/10/28 02:00:13;;;;;;;8.38;6.18;;;;;;;14.26;100.00;101644.31;5027228;28;20231;-53
2022/10/28 02:02:42;;;;;;;6.75;6.10;;;;;;;14.13;100.00;101639.91;5037779;28;20244;-53
2022/10/28 02:05:35;;;;;;;6.57;5.97;;;;;;;14.10;100.00;101632.00;5032602;28;20769;-52
2022/10/28 02:08:12;;;;;;;6.35;5.70;;;;;;;14.04;100.00;101629.38;5033318;28;20282;-53
2022/10/28 02:10:42;;;;;;;8.40;6.05;;;;;;;14.03;100.00;101639.03;5031076;28;20240;-53
2022/10/28 02:13:12;;;;;;;5.80;5.20;;;;;;;14.06;100.00;101632.88;5034719;28;20228;-54
2022/10/28 02:15:45;;;;;;;6.25;5.57;;;;;;;14.01;100.00;101640.81;5033331;28;20737;-52
2022/10/28 02:18:21;;;;;;;7.07;6.30;;;;;;;13.96;100.00;101639.06;5036237;28;20279;-52
2022/10/28 02:20:52;;;;;;;6.30;5.70;;;;;;;13.99;100.00;101633.78;5030419;28;20313;-52
2022/10/28 02:23:27;;;;;;;7.45;5.93;;;;;;;13.94;100.00;101627.63;5030211;28;20240;-53
2022/10/28 02:25:57;;;;;;;11.57;6.90;;;;;;;13.92;100.00;101624.09;5025629;28;20236;-52
2022/10/28 02:28:35;;;;;;;10.05;5.82;;;;;;;13.91;100.00;101641.69;5034328;28;20228;-52
2022/10/28 02:31:06;;;;;;;6.63;5.75;;;;;;;13.92;100.00;101634.66;5023632;28;20751;-54
2022/10/28 02:33:37;;;;;;;7.10;5.72;;;;;;;13.95;100.00;101639.94;5029346;28;20241;-53
2022/10/28 02:36:06;;;;;;;6.47;5.22;;;;;;;13.88;100.00;101643.47;5032797;28;20318;-53
2022/10/28 02:38:35;;;;;;;5.43;4.93;;;;;;;13.86;100.00;101646.06;5032966;28;20317;-52
2022/10/28 02:41:04;;;;;;;9.20;6.10;;;;;;;13.87;100.00;101641.72;5033010;28;20229;-53
2022/10/28 02:43:33;;;;;;;9.27;5.82;;;;;;;13.81;100.00;101624.97;5034959;28;20233;-52
2022/10/28 02:46:02;;;;;;;5.35;4.85;;;;;;;13.77;100.00;101625.84;5032841;28;20240;-53
2022/10/28 02:48:32;;;;;;;6.07;5.13;;;;;;;13.74;100.00;101627.63;5026179;28;20239;-53
2022/10/28 02:51:06;;;;;;;6.30;5.55;;;;;;;13.81;100.00;101630.25;5028023;28;20305;-53
2022/10/28 02:53:41;;;;;;;5.57;5.07;;;;;;;13.89;100.00;101626.72;5044933;28;20917;-53
2022/10/28 02:56:09;;;;;;;7.35;5.45;;;;;;;13.80;100.00;101635.53;5040013;28;20220;-53
2022/10/28 02:58:40;;;;;;;5.82;5.22;;;;;;;13.77;100.00;101636.41;5045986;28;20239;-52
2022/10/28 03:01:07;;;;;;;9.77;5.68;;;;;;;13.73;100.00;101645.22;5041684;28;20303;-52
2022/10/28 03:03:34;;;;;;;8.45;5.18;;;;;;;13.73;100.00;101639.06;5030624;28;20248;-53
2022/10/28 03:06:02;;;;;;;6.57;4.80;;;;;;;13.74;100.00;101640.81;5027408;28;20256;-52
2022/10/28 03:08:29;;;;;;;7.45;5.45;;;;;;;13.67;100.00;101642.56;5037760;28;20243;-52
2022/10/28 03:10:56;;;;;;;8.07;5.72;;;;;;;13.63;100.00;101632.91;5028828;28;20319;-52
2022/10/28 03:13:23;;;;;;;10.63;6.32;;;;;;;13.63;100.00;101635.53;5034021;28;20246;-53
2022/10/28 03:15:50;;;;;;;8.18;5.75;;;;;;;13.61;100.00;101624.06;5033092;28;20645;-53
2022/10/28 03:18:17;;;;;;;5.93;4.80;;;;;;;13.64;100.00;101624.09;5045494;28;20316;-53
2022/10/28 03:20:44;;;;;;;6.07;5.15;;;;;;;13.67;100.00;101624.09;5033802;28;20243;-54
2022/10/28 03:23:12;;;;;;;6.50;5.60;;;;;;;13.77;100.00;101615.31;5031091;28;20232;-52
2022/10/28 03:25:39;;;;;;;6.43;5.18;;;;;;;13.66;100.00;101611.78;5031109;28;20278;-52
2022/10/28 03:28:06;;;;;;;7.53;5.47;;;;;;;13.61;100.00;101621.44;5046073;28;20733;-53
2022/10/28 03:30:33;;;;;;;7.95;5.70;;;;;;;13.61;100.00;101626.72;5038331;28;20248;-53
2022/10/28 03:33:00;;;;;;;6.72;5.03;;;;;;;13.57;100.00;101627.59;5032587;28;20243;-52
2022/10/28 03:35:27;;;;;;;7.45;5.28;;;;;;;13.57;100.00;101639.03;5041888;28;20353;-53
2022/10/28 03:37:54;;;;;;;7.28;5.13;;;;;;;13.52;100.00;101639.91;5040408;28;20243;-53
2022/10/28 03:40:22;;;;;;;7.05;5.30;;;;;;;13.49;100.00;101640.78;5038737;28;20790;-53
2022/10/28 03:42:49;;;;;;;7.43;5.35;;;;;;;13.45;100.00;101649.59;5032954;28;20306;-52
2022/10/28 03:45:16;;;;;;;6.55;4.68;;;;;;;13.44;100.00;101636.38;5031108;28;20252;-52
2022/10/28 03:47:43;;;;;;;7.60;5.72;;;;;;;13.42;100.00;101632.88;5029991;28;20244;-54
2022/10/28 03:50:10;;;;;;;5.50;5.05;;;;;;;13.38;100.00;101641.66;5041467;28;20707;-53
2022/10/28 03:52:37;;;;;;;5.25;4.60;;;;;;;13.37;100.00;101640.75;5036409;28;20240;-52
2022/10/28 03:55:04;;;;;;;6.38;5.32;;;;;;;13.36;100.00;101634.59;5046736;28;20290;-54
2022/10/28 03:57:33;;;;;;;6.65;5.70;;;;;;;13.34;100.00;101641.66;5045369;28;20447;-51
2022/10/28 04:00:00;;;;;;;6.35;4.63;;;;;;;13.32;100.00;101622.28;5039104;28;20230;-53
2022/10/28 04:02:27;;;;;;;8.15;5.88;;;;;;;13.30;100.00;101616.16;5047775;28;20232;-53
2022/10/28 04:04:53;;;;;;;6.03;5.05;;;;;;;13.36;100.00;101613.50;5049917;28;20230;-53
2022/10/28 04:07:20;;;;;;;4.85;4.10;;;;;;;13.34;100.00;101617.03;5035881;28;20224;-53
2022/10/28 04:09:50;;;;;;;8.80;5.63;;;;;;;13.31;100.00;101619.66;5037802;28;20319;-53
2022/10/28 04:12:17;;;;;;;8.00;5.57;;;;;;;13.31;100.00;101619.66;5022129;28;20237;-54
2022/10/28 04:14:46;;;;;;;6.82;5.30;;;;;;;13.28;100.00;101625.81;5032731;28;20250;-52
2022/10/28 04:17:13;;;;;;;7.00;6.05;;;;;;;13.25;100.00;101631.06;5033831;28;20918;-53
2022/10/28 04:19:40;;;;;;;5.68;5.10;;;;;;;13.25;100.00;101623.16;5028802;28;20241;-52
2022/10/28 04:22:07;;;;;;;6.20;5.22;;;;;;;13.25;100.00;101625.78;5025529;28;20232;-53
2022/10/28 04:24:34;;;;;;;5.80;5.28;;;;;;;13.24;100.00;101629.31;5032392;28;20259;-53
2022/10/28 04:27:01;;;;;;;5.95;5.00;;;;;;;13.21;100.00;101623.13;5031734;28;20317;-52
2022/10/28 04:29:28;;;;;;;7.47;4.93;;;;;;;13.21;100.00;101618.72;5031209;28;20235;-53
2022/10/28 04:31:56;;;;;;;8.10;5.32;;;;;;;13.22;100.00;101607.28;5034207;28;20311;-53
2022/10/28 04:34:23;;;;;;;7.20;5.90;;;;;;;13.25;100.00;101607.31;5033055;28;20271;-53
2022/10/28 04:36:49;;;;;;;5.97;5.43;;;;;;;13.29;100.00;101611.72;5031103;28;20844;-54
2022/10/28 04:39:16;;;;;;;6.35;5.28;;;;;;;13.26;100.00;101611.72;5024211;28;20261;-52
2022/10/28 04:41:43;;;;;;;7.20;6.10;;;;;;;13.24;100.00;101620.53;5043107;28;20234;-52
2022/10/28 04:44:09;;;;;;;11.52;7.53;;;;;;;13.28;100.00;101620.53;5031397;28;20235;-52
2022/10/28 04:46:36;;;;;;;5.13;4.68;;;;;;;13.26;100.00;101606.44;5037889;28;20236;-52
2022/10/28 04:49:08;;;;;;;7.63;5.53;;;;;;;13.27;100.00;101610.88;5034313;28;20252;-54
2022/10/28 04:51:35;;;;;;;7.75;5.65;;;;;;;13.24;100.00;101602.94;5041047;28;20239;-52
2022/10/28 04:54:02;;;;;;;10.25;5.20;;;;;;;13.25;100.00;101607.31;5047127;28;20253;-54
2022/10/28 04:56:29;;;;;;;6.72;5.07;;;;;;;13.24;100.00;101604.69;5027833;28;20235;-53
2022/10/28 04:58:56;;;;;;;5.13;4.70;;;;;;;13.24;100.00;101602.06;5032795;28;20227;-52
2022/10/28 05:01:23;;;;;;;6.43;5.20;;;;;;;13.26;100.00;101605.56;5041683;28;20242;-53
2022/10/28 05:03:50;;;;;;;7.22;5.13;;;;;;;13.24;100.00;101613.50;5037446;28;20742;-54
2022/10/28 05:06:18;;;;;;;7.13;4.97;;;;;;;13.24;100.00;101602.94;5036079;28;20825;-53
2022/10/28 05:08:45;;;;;;;6.55;5.60;;;;;;;13.20;100.00;101602.88;5035203;28;20244;-54
2022/10/28 05:11:11;;;;;;;7.72;6.13;;;;;;;13.22;100.00;101607.28;5041978;28;20323;-53
2022/10/28 05:13:38;;;;;;;6.18;5.38;;;;;;;13.19;100.00;101601.13;5040215;28;20244;-54
2022/10/28 05:16:06;;;;;;;8.65;5.55;;;;;;;13.16;100.00;101599.34;5039942;28;20232;-52
2022/10/28 05:18:33;;;;;;;8.38;5.88;;;;;;;13.10;100.00;101604.63;5034676;28;20298;-52
2022/10/28 05:20:59;;;;;;;8.10;5.90;;;;;;;13.10;100.00;101600.25;5025230;28;20323;-54
2022/10/28 05:23:28;;;;;;;7.30;5.82;;;;;;;13.10;100.00;101583.53;5033377;28;20574;-53
2022/10/28 05:25:55;;;;;;;10.63;5.93;;;;;;;13.13;100.00;101573.00;5033862;28;20224;-53
2022/10/28 05:28:22;;;;;;;6.40;5.47;;;;;;;13.20;100.00;101584.41;5032756;28;20250;-52
2022/10/28 05:30:48;;;;;;;7.68;4.97;;;;;;;13.17;100.00;101587.94;5032410;28;20630;-52
2022/10/28 05:33:15;;;;;;;5.88;5.28;;;;;;;13.20;100.00;101587.97;5030172;28;20323;-52
2022/10/28 05:35:42;;;;;;;8.88;5.78;;;;;;;13.21;100.00;101592.34;5041137;28;20243;-53
2022/10/28 05:38:09;;;;;;;8.50;5.88;;;;;;;13.17;100.00;101595.88;5043616;28;20238;-55
2022/10/28 05:40:37;;;;;;;6.93;6.22;;;;;;;13.13;100.00;101588.81;5036991;28;20229;-52
2022/10/28 05:43:04;;;;;;;7.95;6.47;;;;;;;13.11;100.00;101587.94;5033710;28;20236;-52
2022/10/28 05:45:31;;;;;;;7.53;5.70;;;;;;;13.12;100.00;101592.31;5029463;28;20255;-52
2022/10/28 05:47:58;;;;;;;6.05;5.45;;;;;;;13.13;100.00;101583.56;5034078;28;20228;-52
2022/10/28 05:50:25;;;;;;;11.88;6.10;;;;;;;13.14;100.00;101582.66;5032676;28;20640;-52
2022/10/28 05:52:53;;;;;;;7.00;6.30;;;;;;;13.10;100.00;101584.41;5022217;28;20232;-52
2022/10/28 05:55:21;;;;;;;8.60;6.88;;;;;;;13.09;100.00;101574.75;5039867;28;20326;-53
2022/10/28 05:57:50;;;;;;;6.05;5.45;;;;;;;13.18;100.00;101578.28;5032702;28;20230;-54
2022/10/28 06:00:18;;;;;;;7.43;5.63;;;;;;;13.15;100.00;101579.16;5040400;28;20322;-54
2022/10/28 06:02:45;;;;;;;9.55;5.95;;;;;;;13.17;100.00;101582.69;5041862;28;20236;-53
2022/10/28 06:05:13;;;;;;;9.02;6.75;;;;;;;13.17;100.00;101580.03;5042764;28;20318;-53
2022/10/28 06:07:40;;;;;;;11.35;6.38;;;;;;;13.28;100.00;101583.59;5051542;28;20231;-64
2022/10/28 06:10:09;;;;;;;9.23;6.40;;;;;;;13.30;100.00;101583.59;5050757;28;20292;-51
2022/10/28 06:12:39;;;;;;;10.82;6.53;;;;;;;13.25;100.00;101573.03;5040356;28;20600;-52
2022/10/28 06:15:08;;;;;;;11.40;6.63;;;;;;;13.27;100.00;101558.13;5041447;28;20702;-52
2022/10/28 06:17:35;;;;;;;7.60;6.13;;;;;;;13.28;100.00;101566.91;5040078;28;20240;-53
2022/10/28 06:20:02;;;;;;;7.43;5.75;;;;;;;13.36;100.00;101554.59;5039970;28;20648;-52
2022/10/28 06:22:29;;;;;;;8.90;5.72;;;;;;;13.31;100.00;101551.97;5042156;28;20231;-53
2022/10/28 06:24:55;;;;;;;8.45;6.10;;;;;;;13.24;100.00;101560.75;5037448;28;20230;-53
2022/10/28 06:27:22;;;;;;;9.13;6.65;;;;;;;13.27;100.00;101554.59;5044491;28;20230;-53
2022/10/28 06:29:49;;;;;;;7.15;6.43;;;;;;;13.30;100.00;101555.50;5037804;28;20246;-53
2022/10/28 06:32:17;;;;;;;11.63;5.88;;;;;;;13.36;100.00;101559.88;5049016;28;20748;-51
2022/10/28 06:34:44;;;;;;;7.60;6.07;;;;;;;13.41;100.00;101554.59;5046351;28;20235;-53
2022/10/28 06:37:11;;;;;;;9.70;6.85;;;;;;;13.38;100.00;101554.63;5037277;28;20258;-53
2022/10/28 06:39:38;;;;;;;8.98;6.28;;;;;;;13.46;100.00;101551.09;5043199;28;20331;-52
2022/10/28 06:42:05;;;;;;;8.35;5.90;;;;;;;13.40;100.00;101543.16;5034656;28;20290;-53
2022/10/28 06:44:32;;;;;;;13.85;6.05;;;;;;;13.59;100.00;101549.34;5036736;28;20702;-52
2022/10/28 06:46:59;;;;;;;10.60;6.53;;;;;;;13.60;100.00;101546.69;5025516;28;20290;-53
2022/10/28 06:49:27;;;;;;;11.68;5.18;;;;;;;13.67;100.00;101567.81;5043028;28;20232;-52
2022/10/28 06:51:54;;;;;;;7.88;6.03;;;;;;;13.77;100.00;101572.19;5035707;28;20242;-52
2022/10/28 06:54:21;;;;;;;6.40;5.50;;;;;;;13.82;100.00;101566.00;5034154;28;20254;-53
2022/10/28 06:56:48;;;;;;;7.28;5.65;;;;;;;13.73;100.00;101559.88;5042547;28;20251;-52
2022/10/28 06:59:14;;;;;;;8.48;5.75;;;;;;;13.80;100.00;101567.78;5037643;28;20232;-53
2022/10/28 07:01:41;;;;;;;7.18;5.68;;;;;;;13.81;100.00;101564.25;5044462;28;20722;-54
2022/10/28 07:04:11;;;;;;;7.05;5.68;;;;;;;13.78;100.00;101585.38;5031447;28;20650;-52
2022/10/28 07:06:39;;;;;;;9.75;6.50;;;;;;;13.83;100.00;101586.28;5040514;28;20246;-52
2022/10/28 07:09:06;;;;;;;8.85;6.30;;;;;;;13.88;100.00;101585.38;5033805;28;20229;-52
2022/10/28 07:11:33;;;;;;;6.40;5.75;;;;;;;13.94;100.00;101588.91;5035332;28;20325;-53
2022/10/28 07:14:00;;;;;;;7.85;5.85;;;;;;;13.89;100.00;101576.56;5043151;28;20258;-53
2022/10/28 07:16:27;;;;;;;8.95;6.03;;;;;;;13.84;100.00;101574.81;5038775;28;20317;-52
2022/10/28 07:18:53;;;;;;;7.38;5.38;;;;;;;13.85;100.00;101570.41;5029043;28;20228;-52
2022/10/28 07:21:23;;;;;;;9.05;5.22;;;;;;;13.86;100.00;101566.88;5039757;28;20229;-52
2022/10/28 07:23:51;;;;;;;7.90;6.00;;;;;;;13.94;100.00;101569.53;5040016;28;20251;-52
2022/10/28 07:26:18;;;;;;;10.40;6.05;;;;;;;13.96;100.00;101567.75;5036427;28;20282;-52
2022/10/28 07:28:45;;;;;;;7.82;5.57;;;;;;;14.06;100.00;101575.66;5039239;28;20240;-52
2022/10/28 07:31:11;;;;;;;6.13;5.40;;;;;;;14.18;100.00;101581.78;5047635;28;20236;-53
2022/10/28 07:33:38;;;;;;;8.93;5.45;;;;;;;14.39;100.00;101594.06;5030199;28;20682;-53
2022/10/28 07:36:06;;;;;;;15.38;6.15;;;;;;;14.37;100.00;101586.16;5038587;28;20294;-51
2022/10/28 07:38:33;;;;;;;7.93;5.13;;;;;;;14.47;100.00;101581.75;5037816;28;20282;-52
2022/10/28 07:41:05;;;;;;;7.93;5.82;;;;;;;14.41;100.00;101576.47;5040771;28;20228;-52
2022/10/28 07:43:32;;;;;;;8.88;5.45;;;;;;;14.48;100.00;101573.78;5030592;28;20240;-52
2022/10/28 07:45:59;;;;;;;7.40;5.95;;;;;;;14.60;100.00;101567.63;5038581;28;20715;-53
2022/10/28 07:48:25;;;;;;;7.20;6.28;;;;;;;14.57;100.00;101578.22;5030246;28;20259;-52
2022/10/28 07:50:52;;;;;;;8.70;5.75;;;;;;;14.59;100.00;101587.00;5033629;28;20242;-51
2022/10/28 07:53:19;;;;;;;7.82;6.35;;;;;;;14.59;100.00;101576.41;5037537;28;20267;-53
2022/10/28 07:55:46;;;;;;;6.80;5.00;;;;;;;14.65;100.00;101575.53;5037160;28;20236;-52
2022/10/28 07:58:14;;;;;;;7.13;4.55;;;;;;;14.71;100.00;101571.09;5045687;28;20723;-53
2022/10/28 08:00:40;;;;;;;7.18;4.65;;;;;;;14.86;100.00;101569.25;5058455;28;20240;-54
2022/10/28 08:03:07;;;;;;;7.50;5.72;;;;;;;14.93;100.00;101579.78;5045975;28;20228;-52
2022/10/28 08:05:34;;;;;;;11.90;6.22;;;;;;;15.03;100.00;101577.97;5039912;28;20706;-52
2022/10/28 08:08:00;;;;;;;9.10;5.55;;;;;;;15.09;100.00;101591.16;5033917;28;20235;-52
2022/10/28 08:10:27;;;;;;;16.55;11.95;;;;;;;15.23;100.00;101593.72;5032194;28;20241;-52
2022/10/28 08:12:56;;;;;;;7.82;5.60;;;;;;;15.32;100.00;101598.09;5028788;28;20330;-51
2022/10/28 08:15:24;;;;;;;9.82;4.90;;;;;;;15.49;100.00;101598.84;5026440;28;20321;-51
2022/10/28 08:17:52;;;;;;;7.03;5.13;;;;;;;15.52;100.00;101598.81;5036390;28;20238;-52
2022/10/28 08:20:18;;;;;;;6.88;4.43;;;;;;;15.59;100.00;101605.81;5033528;28;20232;-54
2022/10/28 08:22:45;;;;;;;8.98;5.18;;;;;;;15.67;100.00;101596.06;5041432;28;20246;-53
2022/10/28 08:25:12;;;;;;;6.90;4.90;;;;;;;15.80;100.00;101588.03;5030102;28;20232;-54
2022/10/28 08:27:40;;;;;;;8.02;5.40;;;;;;;15.80;100.00;101583.63;5039157;28;20290;-53
2022/10/28 08:30:08;;;;;;;9.88;4.65;;;;;;;15.91;100.00;101589.69;5039895;28;20721;-52
2022/10/28 08:32:36;;;;;;;5.20;4.32;;;;;;;15.95;100.00;101598.50;5041881;28;20406;-52
2022/10/28 08:35:03;;;;;;;6.07;5.32;;;;;;;15.84;100.00;101608.31;5045478;28;20811;-52
2022/10/28 08:37:30;;;;;;;5.65;4.15;;;;;;;15.83;100.00;101599.50;5042683;28;20236;-51
2022/10/28 08:39:57;;;;;;;4.82;4.32;;;;;;;15.66;100.00;101601.41;5035731;28;20826;-51
2022/10/28 08:42:32;;;;;;;6.18;4.30;;;;;;;15.60;100.00;101602.28;5040753;28;20765;-52
2022/10/28 08:45:09;;;;;;;7.25;4.75;;;;;;;15.65;100.00;101605.75;5028968;28;20250;-52
2022/10/28 08:47:45;;;;;;;4.72;4.20;;;;;;;15.63;100.00;101602.25;5025766;28;20232;-53
2022/10/28 08:50:13;;;;;;;7.75;4.65;;;;;;;15.74;100.00;101595.13;5021854;28;20232;-53
2022/10/28 08:52:44;;;;;;;9.27;4.88;;;;;;;15.88;100.00;101597.66;5035417;28;20677;-52
2022/10/28 08:55:14;;;;;;;7.25;4.70;;;;;;;16.00;100.00;101596.66;5039975;28;20874;-53
2022/10/28 08:57:43;;;;;;;4.90;3.42;;;;;;;16.15;100.00;101609.78;5013344;28;20240;-51
2022/10/28 09:00:18;;;;;;;4.38;3.97;;;;;;;16.29;100.00;101609.63;5027348;28;20289;-53
2022/10/28 09:02:53;;;;;;;7.47;4.20;;;;;;;16.42;100.00;101615.66;5040770;28;20242;-53
2022/10/28 09:05:22;;;;;;;8.00;4.57;;;;;;;16.54;100.00;101612.88;5025737;28;20615;-53
2022/10/28 09:07:49;;;;;;;7.07;4.20;;;;;;;16.66;100.00;101609.19;5032528;28;20235;-53
2022/10/28 09:10:17;;;;;;;6.97;6.13;;;;;;;16.66;100.00;101593.28;5027266;28;20651;-53
2022/10/28 09:12:48;;;;;;;10.63;4.32;;;;;;;16.82;100.00;101594.03;5032374;28;20278;-53
2022/10/28 09:15:26;;;;;;;4.95;4.45;;;;;;;16.92;100.00;101591.22;5029201;28;20286;-52
2022/10/28 09:17:56;;;;;;;9.85;3.72;;;;;;;17.07;100.00;101584.81;5030107;28;20229;-52
2022/10/28 09:20:43;;;;;;;7.15;3.85;;;;;;;17.08;100.00;101581.25;5035120;28;20727;-52
2022/10/28 09:23:19;;;;;;;9.10;4.35;;;;;;;17.24;100.00;101571.31;5043460;28;20232;-52
2022/10/28 09:25:53;;;;;;;4.50;3.80;;;;;;;17.31;100.00;101572.09;5031613;28;20236;-52
2022/10/28 09:28:28;;;;;;;4.13;3.72;;;;;;;17.38;100.00;101568.44;5023356;28;20229;-52
2022/10/28 09:31:00;;;;;;;7.18;4.28;;;;;;;17.44;100.00;101573.63;5023922;28;20235;-52
2022/10/28 09:33:42;;;;;;;6.85;4.28;;;;;;;17.69;100.00;101565.25;5029116;28;20227;-52
2022/10/28 09:36:13;;;;;;;10.73;4.85;;;;;;;17.66;100.00;101563.56;5035461;28;20711;-51
2022/10/28 09:38:40;;;;;;;6.13;3.92;;;;;;;17.81;100.00;101567.75;5031636;28;20232;-53
2022/10/28 09:41:10;;;;;;;6.95;4.93;;;;;;;17.90;100.00;101578.22;5038680;28;20242;-52
2022/10/28 09:43:40;;;;;;;5.75;4.07;;;;;;;17.84;100.00;101570.38;5036203;28;20933;-52
2022/10/28 09:46:11;;;;;;;6.20;4.30;;;;;;;17.87;100.00;101570.31;5039022;28;20491;-52
2022/10/28 09:48:42;;;;;;;8.23;3.88;;;;;;;17.96;98.88;101564.81;5034132;28;20235;-53
2022/10/28 09:51:19;;;;;;;6.75;3.83;;;;;;;18.10;99.60;101570.75;5026988;28;20239;-52
2022/10/28 09:53:49;;;;;;;6.00;3.33;;;;;;;18.40;95.66;101562.22;5026337;28;20232;-52
2022/10/28 09:56:16;;;;;;;4.60;3.55;;;;;;;18.45;94.63;101555.88;5036395;28;20235;-52
2022/10/28 09:58:46;;;;;;;8.15;3.53;;;;;;;18.43;95.76;101552.41;5036148;28;20248;-52
2022/10/28 10:01:13;;;;;;;6.20;4.13;;;;;;;18.45;97.28;101552.34;5038270;28;20665;-52
2022/10/28 10:03:41;;;;;;;4.03;3.50;;;;;;;18.40;96.26;101547.16;5036809;28;20616;-52
2022/10/28 10:06:13;;;;;;;7.45;4.15;;;;;;;18.41;95.52;101546.22;5037997;28;20618;-52
2022/10/28 10:08:40;;;;;;;7.82;4.32;;;;;;;18.35;96.38;101544.56;5021925;28;20224;-53
2022/10/28 10:11:13;;;;;;;6.43;4.35;;;;;;;18.52;94.43;101533.59;5040285;28;20240;-52
2022/10/28 10:13:41;;;;;;;6.82;3.45;;;;;;;18.61;95.32;101535.19;5030069;28;20253;-53
2022/10/28 10:16:14;;;;;;;8.38;4.05;;;;;;;18.59;96.86;101542.31;5035384;28;20706;-51
2022/10/28 10:18:45;;;;;;;4.97;4.13;;;;;;;18.65;97.11;101542.19;5025137;28;20236;-52
2022/10/28 10:21:13;;;;;;;9.10;4.03;;;;;;;18.77;94.95;101535.75;5040584;28;20227;-53
2022/10/28 10:23:40;;;;;;;6.40;3.58;;;;;;;18.76;96.58;101532.22;5035958;28;20323;-51
2022/10/28 10:26:08;;;;;;;5.05;3.83;;;;;;;18.85;95.37;101539.13;5038956;28;20238;-52
2022/10/28 10:28:36;;;;;;;6.93;4.32;;;;;;;18.99;93.71;101531.72;5043112;28;20382;-52
2022/10/28 10:31:05;;;;;;;11.18;4.45;;;;;;;19.13;92.25;101525.16;5033907;28;20237;-52
2022/10/28 10:33:33;;;;;;;9.40;3.88;;;;;;;19.26;91.89;101513.31;5040564;28;20640;-52
2022/10/28 10:36:05;;;;;;;7.40;4.10;;;;;;;19.39;90.83;101522.75;5035079;28;20821;-54
2022/10/28 10:38:32;;;;;;;6.97;3.83;;;;;;;19.45;90.74;101519.94;5032368;28;20228;-52
2022/10/28 10:40:58;;;;;;;10.40;3.97;;;;;;;19.59;89.15;101519.59;5038536;28;20268;-52
2022/10/28 10:43:30;;;;;;;5.57;3.40;;;;;;;19.62;88.67;101511.53;5035846;28;20228;-52
2022/10/28 10:46:02;;;;;;;8.52;3.55;;;;;;;19.75;87.82;101518.28;5027423;28;20224;-53
2022/10/28 10:48:31;;;;;;;5.10;3.55;;;;;;;19.86;87.32;101515.34;5034053;28;20235;-52
2022/10/28 10:50:57;;;;;;;10.43;3.45;;;;;;;19.82;87.03;101513.66;5036726;28;20231;-51
2022/10/28 10:53:27;;;;;;;11.38;3.80;;;;;;;19.86;88.06;101512.66;5036576;28;20290;-51
2022/10/28 10:55:57;;;;;;;8.07;4.97;;;;;;;19.90;87.69;101510.78;5038982;28;20721;-53
2022/10/28 10:58:24;;;;;;;6.32;3.95;;;;;;;19.95;87.25;101501.75;5043704;28;20244;-53
2022/10/28 11:00:52;;;;;;;8.15;3.28;;;;;;;19.99;87.69;101494.56;5043747;28;20231;-53
2022/10/28 11:03:21;;;;;;;4.32;2.92;;;;;;;20.11;85.65;101493.31;5042420;28;20247;-52
2022/10/28 11:05:49;;;;;;;9.52;3.80;;;;;;;20.20;84.02;101498.41;5046503;28;20658;-52
2022/10/28 11:08:33;;;;;;;6.47;3.13;;;;;;;20.33;82.47;101496.28;5038592;28;20260;-51
2022/10/28 11:11:07;;;;;;;10.73;3.28;;;;;;;20.47;80.68;101494.06;5045554;28;20275;-52
2022/10/28 11:13:35;;;;;;;11.60;4.30;;;;;;;20.57;79.85;101497.34;5034166;28;20250;-53
2022/10/28 11:16:02;;;;;;;4.45;2.90;;;;;;;20.81;78.98;101495.72;5038630;28;20235;-51
2022/10/28 11:18:30;;;;;;;6.93;2.92;;;;;;;20.76;79.92;101497.66;5042385;28;20228;-52
2022/10/28 11:21:00;;;;;;;15.57;3.85;;;;;;;20.81;78.27;101496.59;5044166;28;20224;-52
2022/10/28 11:23:39;;;;;;;6.50;3.15;;;;;;;20.82;79.05;101497.50;5044919;28;20235;-53
2022/10/28 11:26:07;;;;;;;8.20;3.03;;;;;;;20.87;78.79;101491.06;5046553;28;20231;-52